createdAt,value
2022-12-29T00:00:11.294Z,100331.06
2022-12-29T00:02:38.059Z,100321.84
2022-12-29T00:05:05.603Z,100326.19
2022-12-29T00:07:32.172Z,100323.38
2022-12-29T00:09:58.835Z,100316.13
2022-12-29T00:12:25.461Z,100313.97
2022-12-29T00:14:53.482Z,100310.19
2022-12-29T00:17:20.057Z,100314.56
2022-12-29T00:19:46.812Z,100316.25
2022-12-29T00:22:14.930Z,100300.09
2022-12-29T00:24:41.643Z,100296.41
2022-12-29T00:27:13.308Z,100301.66
2022-12-29T00:29:40.787Z,100298.97
2022-12-29T00:32:10.720Z,100290.69
2022-12-29T00:34:37.603Z,100285.31
2022-12-29T00:37:04.303Z,100291.56
2022-12-29T00:39:30.887Z,100288.00
2022-12-29T00:41:57.563Z,100280.91
2022-12-29T00:44:24.918Z,100287.16
2022-12-29T00:46:51.661Z,100284.63
2022-12-29T00:49:19.704Z,100285.63
2022-12-29T00:51:46.442Z,100277.53
2022-12-29T00:54:13.894Z,100288.31
2022-12-29T00:56:40.787Z,100284.78
2022-12-29T00:59:10.125Z,100281.09
2022-12-29T01:01:39.014Z,100290.03
2022-12-29T01:04:06.637Z,100285.63
2022-12-29T01:06:36.656Z,100280.22
2022-12-29T01:09:04.328Z,100271.16
2022-12-29T01:11:30.965Z,100266.75
2022-12-29T01:13:57.502Z,100266.63
2022-12-29T01:16:24.128Z,100274.53
2022-12-29T01:18:50.716Z,100281.63
2022-12-29T01:21:17.366Z,100271.69
2022-12-29T01:23:46.049Z,100262.75
2022-12-29T01:26:14.055Z,100274.38
2022-12-29T01:28:41.071Z,100276.09
2022-12-29T01:31:08.075Z,100268.81
2022-12-29T01:33:34.921Z,100271.50
2022-12-29T01:36:01.814Z,100270.53
2022-12-29T01:38:28.443Z,100281.31
2022-12-29T01:40:56.444Z,100279.59
2022-12-29T01:43:43.641Z,100271.50
2022-12-29T01:46:19.548Z,100268.00
2022-12-29T01:48:47.861Z,100275.06
2022-12-29T01:51:15.441Z,100262.44
2022-12-29T01:53:43.724Z,100248.09
2022-12-29T01:56:15.574Z,100248.09
2022-12-29T01:58:47.176Z,100242.72
2022-12-29T02:01:14.604Z,100242.72
2022-12-29T02:03:41.689Z,100242.72
2022-12-29T02:06:13.933Z,100242.72
2022-12-29T02:08:41.611Z,100238.19
2022-12-29T02:11:08.825Z,100229.09
2022-12-29T02:13:36.787Z,100227.41
2022-12-29T02:16:15.613Z,100225.56
2022-12-29T02:18:55.664Z,100216.63
2022-12-29T02:21:47.017Z,100215.78
2022-12-29T02:24:46.284Z,100207.84
2022-12-29T02:27:45.135Z,100213.91
2022-12-29T02:30:38.836Z,100214.63
2022-12-29T02:33:14.649Z,100204.53
2022-12-29T02:35:49.942Z,100204.38
2022-12-29T02:38:26.109Z,100211.28
2022-12-29T02:40:59.134Z,100207.47
2022-12-29T02:43:32.055Z,100211.69
2022-12-29T02:46:05.753Z,100210.53
2022-12-29T02:48:39.603Z,100202.28
2022-12-29T02:51:14.507Z,100204.84
2022-12-29T02:53:41.562Z,100203.66
2022-12-29T02:56:08.327Z,100205.22
2022-12-29T02:58:35.059Z,100209.44
2022-12-29T03:01:22.289Z,100206.47
2022-12-29T03:04:00.066Z,100194.63
2022-12-29T03:06:36.412Z,100187.06
2022-12-29T03:09:18.359Z,100180.69
2022-12-29T03:11:55.105Z,100181.53
2022-12-29T03:14:29.922Z,100177.84
2022-12-29T03:17:03.076Z,100172.31
2022-12-29T03:19:34.000Z,100176.53
2022-12-29T03:22:04.876Z,100175.53
2022-12-29T03:24:37.114Z,100167.44
2022-12-29T03:27:07.185Z,100175.34
2022-12-29T03:29:40.350Z,100176.06
2022-12-29T03:32:10.479Z,100167.63
2022-12-29T03:34:39.218Z,100175.59
2022-12-29T03:37:11.308Z,100168.34
2022-12-29T03:39:38.402Z,100173.56
2022-12-29T03:42:10.498Z,100185.19
2022-12-29T03:44:39.281Z,100187.75
2022-12-29T03:47:08.625Z,100185.72
2022-12-29T03:49:35.374Z,100194.50
2022-12-29T03:52:01.971Z,100187.94
2022-12-29T03:54:28.739Z,100183.25
2022-12-29T03:56:55.422Z,100176.69
2022-12-29T03:59:22.194Z,100171.84
2022-12-29T04:01:48.926Z,100172.50
2022-12-29T04:04:17.141Z,100172.34
2022-12-29T04:06:44.416Z,100163.06
2022-12-29T04:09:12.228Z,100157.53
2022-12-29T04:11:38.815Z,100158.38
2022-12-29T04:14:05.446Z,100154.66
2022-12-29T04:16:32.079Z,100168.69
2022-12-29T04:18:58.667Z,100173.06
2022-12-29T04:21:26.685Z,100163.97
2022-12-29T04:23:53.310Z,100153.88
2022-12-29T04:26:19.906Z,100152.03
2022-12-29T04:28:46.484Z,100144.75
2022-12-29T04:31:13.214Z,100144.59
2022-12-29T04:33:39.898Z,100142.75
2022-12-29T04:36:06.903Z,100133.94
2022-12-29T04:38:35.651Z,100141.03
2022-12-29T04:41:03.055Z,100142.03
2022-12-29T04:43:29.752Z,100145.59
2022-12-29T04:45:56.686Z,100148.16
2022-12-29T04:48:23.872Z,100142.75
2022-12-29T04:50:50.929Z,100145.28
2022-12-29T04:53:18.447Z,100136.00
2022-12-29T04:55:49.958Z,100135.88
2022-12-29T04:58:22.403Z,100133.16
2022-12-29T05:00:49.552Z,100132.97
2022-12-29T05:03:16.265Z,100131.81
2022-12-29T05:05:44.996Z,100138.06
2022-12-29T05:08:11.717Z,100119.00
2022-12-29T05:10:38.368Z,100120.69
2022-12-29T05:13:06.490Z,100123.91
2022-12-29T05:15:34.101Z,100121.22
2022-12-29T05:18:00.705Z,100104.00
2022-12-29T05:20:27.300Z,100112.81
2022-12-29T05:22:53.998Z,100106.38
2022-12-29T05:25:20.615Z,100099.81
2022-12-29T05:27:47.291Z,100102.34
2022-12-29T05:30:15.434Z,100105.72
2022-12-29T05:32:42.051Z,100100.31
2022-12-29T05:35:09.657Z,100107.44
2022-12-29T05:37:36.404Z,100104.72
2022-12-29T05:40:03.526Z,100102.69
2022-12-29T05:42:30.081Z,100112.50
2022-12-29T05:44:56.734Z,100105.09
2022-12-29T05:47:24.834Z,100107.59
2022-12-29T05:49:51.471Z,100105.59
2022-12-29T05:52:18.090Z,100104.59
2022-12-29T05:54:45.185Z,100099.00
2022-12-29T05:57:11.833Z,100080.94
2022-12-29T05:59:38.433Z,100090.75
2022-12-29T06:02:05.381Z,100088.56
2022-12-29T06:04:33.586Z,100091.94
2022-12-29T06:07:00.233Z,100087.38
2022-12-29T06:09:26.824Z,100084.34
2022-12-29T06:11:53.891Z,100093.31
2022-12-29T06:14:20.560Z,100100.38
2022-12-29T06:16:47.215Z,100096.66
2022-12-29T06:19:13.885Z,100086.56
2022-12-29T06:21:42.103Z,100091.13
2022-12-29T06:24:08.842Z,100090.91
2022-12-29T06:26:35.526Z,100100.91
2022-12-29T06:29:02.112Z,100104.13
2022-12-29T06:31:28.869Z,100099.38
2022-12-29T06:33:55.507Z,100092.63
2022-12-29T06:36:22.122Z,100101.44
2022-12-29T06:38:50.224Z,100097.72
2022-12-29T06:41:17.359Z,100096.88
2022-12-29T06:43:43.996Z,100089.63
2022-12-29T06:46:10.676Z,100091.28
2022-12-29T06:48:37.309Z,100096.69
2022-12-29T06:51:04.090Z,100100.44
2022-12-29T06:53:30.772Z,100101.28
2022-12-29T06:55:58.773Z,100109.53
2022-12-29T06:58:25.425Z,100103.13
2022-12-29T07:00:52.035Z,100104.97
2022-12-29T07:03:18.757Z,100108.84
2022-12-29T07:05:45.476Z,100107.19
2022-12-29T07:08:12.130Z,100111.72
2022-12-29T07:10:40.816Z,100124.06
2022-12-29T07:13:08.862Z,100119.50
2022-12-29T07:15:35.691Z,100120.50
2022-12-29T07:18:02.288Z,100110.53
2022-12-29T07:20:28.890Z,100115.09
2022-12-29T07:22:55.690Z,100107.19
2022-12-29T07:25:22.526Z,100112.72
2022-12-29T07:27:49.215Z,100095.69
2022-12-29T07:30:17.612Z,100096.69
2022-12-29T07:32:44.235Z,100107.47
2022-12-29T07:35:10.865Z,100086.91
2022-12-29T07:37:37.494Z,100085.03
2022-12-29T07:40:04.844Z,100086.06
2022-12-29T07:42:32.041Z,100096.69
2022-12-29T07:44:58.687Z,100087.56
2022-12-29T07:47:26.740Z,100097.38
2022-12-29T07:49:53.375Z,100096.38
2022-12-29T07:52:19.966Z,100104.28
2022-12-29T07:54:46.588Z,100109.53
2022-12-29T07:57:13.193Z,100098.72
2022-12-29T07:59:39.863Z,100100.44
2022-12-29T08:02:06.800Z,100099.38
2022-12-29T08:04:34.822Z,100101.09
2022-12-29T08:07:01.428Z,100108.19
2022-12-29T08:09:27.995Z,100092.81
2022-12-29T08:11:55.152Z,100100.78
2022-12-29T08:14:21.800Z,100112.41
2022-12-29T08:16:48.642Z,100113.25
2022-12-29T08:19:15.491Z,100102.44
2022-12-29T08:21:43.632Z,100117.00
2022-12-29T08:24:10.478Z,100123.22
2022-12-29T08:26:37.140Z,100103.47
2022-12-29T08:29:03.869Z,100089.97
2022-12-29T08:31:30.920Z,100089.13
2022-12-29T08:33:57.565Z,100092.66
2022-12-29T08:36:24.157Z,100091.63
2022-12-29T08:38:52.167Z,100100.44
2022-12-29T08:41:18.805Z,100098.38
2022-12-29T08:43:47.113Z,100103.28
2022-12-29T08:46:14.043Z,100094.69
2022-12-29T08:48:40.894Z,100072.28
2022-12-29T08:51:07.691Z,100075.28
2022-12-29T08:53:34.503Z,100085.44
2022-12-29T08:56:05.479Z,100076.81
2022-12-29T08:58:32.957Z,100076.31
2022-12-29T09:00:59.948Z,100072.41
2022-12-29T09:04:03.842Z,100074.78
2022-12-29T09:06:15.176Z,100079.69
2022-12-29T09:08:41.762Z,100073.75
2022-12-29T09:11:12.495Z,100070.34
2022-12-29T09:13:39.458Z,100071.69
2022-12-29T09:16:06.654Z,100068.13
2022-12-29T09:18:33.308Z,100068.28
2022-12-29T09:21:01.686Z,100074.69
2022-12-29T09:23:28.934Z,100083.81
2022-12-29T09:25:55.920Z,100079.72
2022-12-29T09:28:24.304Z,100067.84
2022-12-29T09:30:51.679Z,100069.50
2022-12-29T09:33:18.893Z,100058.63
2022-12-29T09:35:50.749Z,100053.16
2022-12-29T09:38:17.323Z,100052.09
2022-12-29T09:40:46.370Z,100053.06
2022-12-29T09:43:27.012Z,100063.03
2022-12-29T09:46:04.969Z,100055.72
2022-12-29T09:48:35.658Z,100065.81
2022-12-29T09:51:09.754Z,100062.56
2022-12-29T09:53:38.974Z,100062.03
2022-12-29T09:56:11.431Z,100065.22
2022-12-29T09:58:43.504Z,100083.00
2022-12-29T10:01:24.910Z,100071.81
2022-12-29T10:03:54.057Z,100067.53
2022-12-29T10:06:25.189Z,100070.53
2022-12-29T10:09:02.022Z,100070.81
2022-12-29T10:11:40.486Z,100066.53
2022-12-29T10:14:26.955Z,100067.50
2022-12-29T10:17:02.613Z,100051.53
2022-12-29T10:20:02.686Z,100054.69
2022-12-29T10:22:39.930Z,100062.28
2022-12-29T10:25:15.916Z,100050.88
2022-12-29T10:27:44.497Z,100052.88
2022-12-29T10:30:14.230Z,100057.94
2022-12-29T10:32:46.511Z,100050.25
2022-12-29T10:35:18.495Z,100053.47
2022-12-29T10:37:50.349Z,100056.47
2022-12-29T10:40:24.537Z,100055.88
2022-12-29T10:42:54.231Z,100057.03
2022-12-29T10:45:24.185Z,100045.16
2022-12-29T10:48:01.017Z,100036.81
2022-12-29T10:50:28.356Z,100052.06
2022-12-29T10:52:57.804Z,100042.91
2022-12-29T10:55:29.440Z,100040.19
2022-12-29T10:58:00.543Z,100033.06
2022-12-29T11:00:27.203Z,100041.19
2022-12-29T11:03:35.732Z,100043.06
2022-12-29T11:06:09.852Z,100042.91
2022-12-29T11:08:39.403Z,100052.06
2022-12-29T11:11:07.661Z,100046.63
2022-12-29T11:13:39.291Z,100046.00
2022-12-29T11:16:06.685Z,100044.97
2022-12-29T11:18:38.318Z,100039.53
2022-12-29T11:21:07.070Z,100047.69
2022-12-29T11:23:39.127Z,100057.88
2022-12-29T11:26:08.846Z,100060.59
2022-12-29T11:28:35.772Z,100058.03
2022-12-29T11:31:04.292Z,100062.38
2022-12-29T11:33:32.203Z,100057.28
2022-12-29T11:36:04.850Z,100055.97
2022-12-29T11:38:36.325Z,100050.25
2022-12-29T11:41:03.863Z,100058.13
2022-12-29T11:43:34.199Z,100061.41
2022-12-29T11:46:02.039Z,100047.72
2022-12-29T11:48:32.643Z,100049.47
2022-12-29T11:51:01.161Z,100043.75
2022-12-29T11:53:33.680Z,100044.47
2022-12-29T11:56:03.468Z,100063.19
2022-12-29T11:58:30.791Z,100057.25
2022-12-29T12:01:01.577Z,100072.22
2022-12-29T12:03:31.415Z,100078.00
2022-12-29T12:06:02.533Z,100082.09
2022-12-29T12:08:35.236Z,100094.13
2022-12-29T12:11:07.785Z,100097.41
2022-12-29T12:13:39.256Z,100103.38
2022-12-29T12:16:10.381Z,100085.94
2022-12-29T12:18:43.167Z,100071.91
2022-12-29T12:21:19.407Z,100073.31
2022-12-29T12:24:01.378Z,100072.78
2022-12-29T12:26:35.722Z,100075.00
2022-12-29T12:29:09.290Z,100088.91
2022-12-29T12:31:46.051Z,100078.44
2022-12-29T12:34:20.002Z,100081.47
2022-12-29T12:37:01.577Z,100078.13
2022-12-29T12:39:38.687Z,100082.84
2022-12-29T12:42:22.929Z,100079.66
2022-12-29T12:45:04.600Z,100079.03
2022-12-29T12:47:46.132Z,100087.31
2022-12-29T12:50:42.515Z,100079.34
2022-12-29T12:53:33.742Z,100092.72
2022-12-29T12:56:17.981Z,100089.34
2022-12-29T12:58:52.244Z,100080.56
2022-12-29T13:01:33.466Z,100089.69
2022-12-29T13:04:33.019Z,100077.16
2022-12-29T13:07:10.842Z,100073.81
2022-12-29T13:09:59.340Z,100081.09
2022-12-29T13:12:37.241Z,100083.97
2022-12-29T13:15:29.548Z,100093.28
2022-12-29T13:18:04.876Z,100089.91
2022-12-29T13:20:38.299Z,100092.81
2022-12-29T13:23:09.150Z,100100.25
2022-12-29T13:25:47.225Z,100091.97
2022-12-29T13:28:23.460Z,100097.38
2022-12-29T13:30:58.002Z,100089.41
2022-12-29T13:33:35.084Z,100105.66
2022-12-29T13:36:06.091Z,100090.44
2022-12-29T13:38:39.207Z,100094.00
2022-12-29T13:41:10.290Z,100093.13
2022-12-29T13:43:40.233Z,100095.84
2022-12-29T13:46:10.927Z,100097.72
2022-12-29T13:48:44.301Z,100098.91
2022-12-29T13:51:12.550Z,100114.31
2022-12-29T13:53:56.209Z,100117.19
2022-12-29T13:56:32.506Z,100107.41
2022-12-29T13:59:06.615Z,100114.84
2022-12-29T14:01:38.612Z,100123.31
2022-12-29T14:04:13.109Z,100125.34
2022-12-29T14:06:40.010Z,100131.13
2022-12-29T14:09:30.404Z,100136.03
2022-12-29T14:12:20.737Z,100135.53
2022-12-29T14:14:47.403Z,100133.16
2022-12-29T14:17:20.510Z,100132.50
2022-12-29T14:19:52.384Z,100135.38
2022-12-29T14:22:32.409Z,100147.06
2022-12-29T14:24:59.873Z,100152.47
2022-12-29T14:27:54.150Z,100155.19
2022-12-29T14:30:52.323Z,100159.94
2022-12-29T14:33:19.719Z,100153.69
2022-12-29T14:35:51.703Z,100159.09
2022-12-29T14:38:24.597Z,100163.66
2022-12-29T14:40:52.399Z,100156.53
2022-12-29T14:43:26.061Z,100159.59
2022-12-29T14:46:00.170Z,100168.72
2022-12-29T14:48:40.127Z,100182.25
2022-12-29T14:51:22.038Z,100193.09
2022-12-29T14:53:51.164Z,100206.63
2022-12-29T14:56:19.907Z,100214.75
2022-12-29T14:58:52.593Z,100256.34
2022-12-29T15:01:25.273Z,100264.97
2022-12-29T15:03:57.311Z,100221.50
2022-12-29T15:06:26.140Z,100223.03
2022-12-29T15:08:57.736Z,100209.16
2022-12-29T15:11:32.375Z,100224.88
2022-12-29T15:14:00.424Z,100234.34
2022-12-29T15:16:31.490Z,100235.53
2022-12-29T15:18:58.784Z,100232.16
2022-12-29T15:21:29.997Z,100225.03
2022-12-29T15:23:57.055Z,100222.69
2022-12-29T15:26:23.877Z,100232.81
2022-12-29T15:28:52.640Z,100232.31
2022-12-29T15:31:28.059Z,100223.69
2022-12-29T15:34:11.202Z,100225.03
2022-12-29T15:36:39.893Z,100232.63
2022-12-29T15:39:19.419Z,100239.41
2022-12-29T15:41:54.659Z,100234.47
2022-12-29T15:44:26.132Z,100242.06
2022-12-29T15:46:54.297Z,100244.09
2022-12-29T15:49:25.071Z,100252.34
2022-12-29T15:51:55.504Z,100266.06
2022-12-29T15:54:24.032Z,100275.16
2022-12-29T15:56:51.165Z,100268.06
2022-12-29T15:59:26.565Z,100279.72
2022-12-29T16:01:55.650Z,100274.31
2022-12-29T16:04:22.725Z,100280.56
2022-12-29T16:06:56.627Z,100276.88
2022-12-29T16:09:31.167Z,100265.22
2022-12-29T16:12:00.725Z,100277.88
2022-12-29T16:14:33.305Z,100271.78
2022-12-29T16:17:03.821Z,100280.22
2022-12-29T16:19:34.631Z,100279.66
2022-12-29T16:22:03.177Z,100284.38
2022-12-29T16:24:33.467Z,100277.47
2022-12-29T16:27:07.416Z,100280.16
2022-12-29T16:29:35.031Z,100285.56
2022-12-29T16:32:03.732Z,100279.47
2022-12-29T16:34:32.970Z,100287.56
2022-12-29T16:37:01.493Z,100289.28
2022-12-29T16:39:32.541Z,100289.28
2022-12-29T16:41:59.462Z,100284.72
2022-12-29T16:44:27.938Z,100279.31
2022-12-29T16:47:05.927Z,100283.88
2022-12-29T16:49:34.966Z,100287.41
2022-12-29T16:52:02.338Z,100288.13
2022-12-29T16:54:35.243Z,100291.63
2022-12-29T16:57:03.460Z,100286.94
2022-12-29T16:59:35.864Z,100299.44
2022-12-29T17:02:13.187Z,100293.84
2022-12-29T17:04:39.921Z,100295.59
2022-12-29T17:07:16.266Z,100303.69
2022-12-29T17:09:42.931Z,100305.41
2022-12-29T17:12:14.576Z,100309.09
2022-12-29T17:14:44.424Z,100310.66
2022-12-29T17:17:16.395Z,100313.34
2022-12-29T17:19:47.753Z,100314.03
2022-12-29T17:22:17.869Z,100317.56
2022-12-29T17:24:44.514Z,100307.59
2022-12-29T17:27:21.194Z,100313.69
2022-12-29T17:29:48.225Z,100312.00
2022-12-29T17:32:16.264Z,100312.88
2022-12-29T17:34:42.895Z,100325.53
2022-12-29T17:37:27.216Z,100319.94
2022-12-29T17:39:53.815Z,100324.34
2022-12-29T17:42:20.473Z,100326.38
2022-12-29T17:44:47.423Z,100325.53
2022-12-29T17:47:16.124Z,100339.06
2022-12-29T17:49:42.812Z,100335.50
2022-12-29T17:52:10.682Z,100338.34
2022-12-29T17:54:45.964Z,100342.06
2022-12-29T17:57:13.856Z,100335.97
2022-12-29T17:59:40.449Z,100336.97
2022-12-29T18:02:23.626Z,100335.25
2022-12-29T18:04:50.432Z,100334.41
2022-12-29T18:07:17.062Z,100324.63
2022-12-29T18:09:43.650Z,100320.38
2022-12-29T18:12:27.292Z,100326.78
2022-12-29T18:14:55.014Z,100329.16
2022-12-29T18:17:23.239Z,100334.19
2022-12-29T18:19:49.891Z,100332.97
2022-12-29T18:22:16.561Z,100341.53
2022-12-29T18:24:43.168Z,100349.81
2022-12-29T18:27:12.416Z,100350.97
2022-12-29T18:29:39.286Z,100361.94
2022-12-29T18:32:06.248Z,100358.56
2022-12-29T18:34:34.253Z,100349.75
2022-12-29T18:37:00.864Z,100347.06
2022-12-29T18:39:29.858Z,100359.03
2022-12-29T18:41:56.688Z,100351.94
2022-12-29T18:44:23.487Z,100349.38
2022-12-29T18:46:50.132Z,100359.38
2022-12-29T18:49:16.874Z,100352.25
2022-12-29T18:51:44.808Z,100361.03
2022-12-29T18:54:22.609Z,100363.91
2022-12-29T18:56:49.181Z,100365.06
2022-12-29T18:59:15.753Z,100368.78
2022-12-29T19:01:42.450Z,100367.09
2022-12-29T19:04:12.206Z,100370.78
2022-12-29T19:06:38.759Z,100369.09
2022-12-29T19:09:06.748Z,100371.97
2022-12-29T19:11:33.604Z,100365.72
2022-12-29T19:14:00.348Z,100374.81
2022-12-29T19:16:27.069Z,100375.16
2022-12-29T19:19:08.518Z,100375.44
2022-12-29T19:21:37.125Z,100379.16
2022-12-29T19:24:04.287Z,100383.88
2022-12-29T19:26:34.804Z,100377.09
2022-12-29T19:29:01.818Z,100388.03
2022-12-29T19:31:28.896Z,100386.34
2022-12-29T19:33:55.861Z,100383.28
2022-12-29T19:36:22.869Z,100395.22
2022-12-29T19:38:49.559Z,100397.53
2022-12-29T19:41:16.335Z,100399.56
2022-12-29T19:43:44.481Z,100397.84
2022-12-29T19:46:15.569Z,100399.41
2022-12-29T19:48:42.434Z,100404.97
2022-12-29T19:51:10.639Z,100400.41
2022-12-29T19:53:37.640Z,100391.47
2022-12-29T19:56:07.021Z,100399.56
2022-12-29T19:58:34.920Z,100398.56
2022-12-29T20:01:06.680Z,100407.66
2022-12-29T20:03:33.863Z,100401.56
2022-12-29T20:06:00.567Z,100399.03
2022-12-29T20:08:27.151Z,100393.78
2022-12-29T20:10:58.041Z,100400.03
2022-12-29T20:13:24.609Z,100392.78
2022-12-29T20:15:51.224Z,100400.88
2022-12-29T20:18:22.471Z,100399.16
2022-12-29T20:20:53.579Z,100410.81
2022-12-29T20:23:20.652Z,100402.72
2022-12-29T20:25:54.241Z,100401.56
2022-12-29T20:28:21.144Z,100404.09
2022-12-29T20:30:55.304Z,100398.56
2022-12-29T20:33:23.598Z,100393.31
2022-12-29T20:35:50.799Z,100406.66
2022-12-29T20:38:17.639Z,100403.09
2022-12-29T20:40:46.696Z,100402.25
2022-12-29T20:43:14.680Z,100405.81
2022-12-29T20:45:41.473Z,100394.16
2022-12-29T20:48:08.163Z,100393.31
2022-12-29T20:50:36.063Z,100397.84
2022-12-29T20:53:02.726Z,100391.59
2022-12-29T20:55:29.356Z,100406.09
2022-12-29T21:00:43.482Z,100383.34
2022-12-29T21:03:10.464Z,100387.75
2022-12-29T21:05:38.874Z,100389.44
2022-12-29T21:08:05.925Z,100381.19
2022-12-29T21:10:32.490Z,100382.91
2022-12-29T21:12:59.192Z,100392.69
2022-12-29T21:15:25.762Z,100394.38
2022-12-29T21:17:52.295Z,100400.63
2022-12-29T21:20:18.882Z,100393.38
2022-12-29T21:22:47.875Z,100394.38
2022-12-29T21:25:14.968Z,100398.91
2022-12-29T21:27:41.549Z,100393.84
2022-12-29T21:30:09.595Z,100401.25
2022-12-29T21:32:36.188Z,100394.31
2022-12-29T21:35:03.001Z,100400.88
2022-12-29T21:37:29.649Z,100409.56
2022-12-29T21:39:57.770Z,100411.22
2022-12-29T21:42:24.341Z,100411.53
2022-12-29T21:44:51.036Z,100420.91
2022-12-29T21:47:17.640Z,100411.41
2022-12-29T21:49:44.318Z,100425.09
2022-12-29T21:52:10.992Z,100420.81
2022-12-29T21:54:37.618Z,100427.53
2022-12-29T21:57:06.507Z,100421.72
2022-12-29T21:59:33.334Z,100434.41
2022-12-29T22:02:00.281Z,100432.53
2022-12-29T22:04:27.190Z,100441.47
2022-12-29T22:06:53.783Z,100439.63
2022-12-29T22:09:20.362Z,100438.63
2022-12-29T22:11:46.973Z,100437.63
2022-12-29T22:14:14.954Z,100441.03
2022-12-29T22:16:41.701Z,100437.31
2022-12-29T22:19:08.319Z,100439.72
2022-12-29T22:21:34.976Z,100440.56
2022-12-29T22:24:01.655Z,100441.09
2022-12-29T22:26:28.519Z,100453.59
2022-12-29T22:28:55.352Z,100452.59
2022-12-29T22:31:26.177Z,100444.50
2022-12-29T22:33:54.399Z,100443.53
2022-12-29T22:36:21.101Z,100452.47
2022-12-29T22:38:47.740Z,100452.59
2022-12-29T22:41:14.405Z,100457.00
2022-12-29T22:43:40.999Z,100463.41
2022-12-29T22:46:07.705Z,100465.09
2022-12-29T22:48:36.407Z,100467.81
2022-12-29T22:51:03.645Z,100474.72
2022-12-29T22:53:30.341Z,100477.28
2022-12-29T22:56:05.588Z,100470.03
2022-12-29T22:58:32.400Z,100480.66
2022-12-29T23:00:59.450Z,100481.38
2022-12-29T23:03:26.361Z,100489.47
2022-12-29T23:05:59.056Z,100485.78
2022-12-29T23:08:25.904Z,100490.31
2022-12-29T23:10:52.838Z,100484.75
2022-12-29T23:13:19.995Z,100490.88
2022-12-29T23:15:47.403Z,100491.72
2022-12-29T23:18:14.148Z,100493.44
2022-12-29T23:20:42.395Z,100490.72
2022-12-29T23:23:10.937Z,100491.72
2022-12-29T23:25:38.033Z,100493.44
2022-12-29T23:28:05.725Z,100498.81
2022-12-29T23:30:32.425Z,100501.66
2022-12-29T23:32:59.223Z,100504.69
2022-12-29T23:35:26.010Z,100509.34
2022-12-29T23:37:52.647Z,100506.13
2022-12-29T23:40:20.592Z,100518.91
2022-12-29T23:42:47.231Z,100522.75
2022-12-29T23:45:13.862Z,100523.91
2022-12-29T23:47:40.464Z,100520.50
2022-12-29T23:50:08.385Z,100527.06
2022-12-29T23:52:35.001Z,100527.06
2022-12-29T23:55:01.620Z,100532.59
2022-12-29T23:57:30.021Z,100529.06
2022-12-29T23:59:56.732Z,100535.44
